Ignacio Ramos

Recruteur - Real Sociedad
24 Juil 2027
Samedi
Processus

Personnalité

Adaptabilité (16) Ambition (20) Controverse (14) Loyauté (11) Pression (2) Professionnalisme (16) Sportivité (19) Tempérament (16)

Profil

Style d'entraînement Démocratique
Diplôme Continental A
Détermination 7
Gestion des joueurs 6
Motivation 14
Discipline 8
Satisfaction professionnelle
98%
Fatigue
0%
Rôle Recruteur
Salaire 80.5K p/s
Contrat 14.03.2029

Performance

Comportement Bon
Efficacité de l'entraînement
36%
Développement des joueurs
40%
Prévention des blessures
65%
Mise en place tactique
40%

Événements récents

A participé à une réunion de recrutement 7j
A participé à une réunion de recrutement 7j
A participé à une réunion de recrutement 14j
A participé à une réunion de recrutement 14j
A participé à une réunion de recrutement 21j
A participé à une réunion de recrutement 21j
A participé à une réunion de recrutement 28j
A participé à une réunion de recrutement 28j

Suivi en cours

145
Joueur Club Statut Capacité Confiance Observé Dernière observation Dernier vote
Yusi Alavés Actif 135 / 143 40% 5 21.06.2027 -
Juan Manuel Villalba Boca Juniors Actif 116 / 116 40% 2 21.06.2027 -
Facundo Infante Talleres Actif 88 / 94 40% 1 21.06.2027 -
Maeson King Blackpool Actif 112 / 108 40% 3 14.06.2027 -
Alan Morinigo Olimpia Actif 117 / 122 40% 1 14.06.2027 -
Iván Alejo Valladolid Perdu 125 / 121 83% 1 07.06.2027 -
Dani Rodríguez Leganés Perdu 125 / 129 83% 1 01.06.2027 -
Hugo Ekitiké Liverpool Actif 168 / 166 40% 5 31.05.2027 -
Fer López Wolverhampton Actif 136 / 135 40% 6 31.05.2027 -
Ilias Akhomach Villarreal Actif 145 / 147 40% 5 31.05.2027 -
Yeremy Pino Crystal Palace Actif 152 / 145 40% 4 29.05.2027 -
Loum Tchaouna Coventry City Actif 138 / 132 40% 4 29.05.2027 -
Jack McGlynn Stoke City Actif 135 / 131 40% 1 29.05.2027 -
Juanlu Bournemouth Actif 144 / 148 40% 13 27.05.2027 -
Roberto Fernández Braga Actif 142 / 146 40% 6 27.05.2027 -
Kevin Fulham Actif 150 / 157 40% 6 26.05.2027 -
Unai Gómez Udinese Actif 137 / 126 40% 4 26.05.2027 -
Christantus Uche Getafe Actif 142 / 133 40% 3 26.05.2027 -
Pablo Torre Mallorca Actif 142 / 142 40% 4 25.05.2027 -
Fermín Barcelona Actif 162 / 164 40% 4 25.05.2027 -
Riley Owen Wycombe Wanderers Actif 105 / 106 40% 5 24.05.2027 -
Leny Yoro Monaco Actif 143 / 154 40% 2 24.05.2027 -
Diogo Guzmán Montevideo City Torque Actif 112 / 112 40% 1 24.05.2027 -
Sidiki Chérif Coventry City Actif 125 / 133 40% 1 24.05.2027 -
Miguel Rodríguez Alavés Actif 133 / 132 40% 4 22.05.2027 -
Yankuba Minteh Brighton Actif 149 / 155 40% 2 22.05.2027 -
Alpha Touré FC Metz Actif 116 / 117 40% 2 21.05.2027 -
Samuel Lucero Defensa y Justicia Actif 114 / 120 40% 2 21.05.2027 -
Tiago Freitas Benfica Actif 106 / 122 40% 3 20.05.2027 -
Izan Merino Málaga Actif 126 / 122 40% 2 20.05.2027 -
Riquelme Thompson-Jones Shrewsbury Town Actif 103 / 120 40% 4 19.05.2027 -
Enzo Cardozo Virtus Entella Actif 106 / 110 40% 3 18.05.2027 -
Pablo Barrios Atlético Madrid Actif 154 / 171 40% 11 17.05.2027 -
Álex Valle Como Actif 140 / 137 40% 13 17.05.2027 -
Julio Enciso Ipswich Town Actif 146 / 156 40% 9 15.05.2027 -
Hugo Álvarez Celta Actif 141 / 134 40% 3 15.05.2027 -
Assane Diao Como Perdu 150 / 156 40% 3 14.05.2027 -
Alberto Moleiro Villarreal Actif 156 / 160 40% 2 14.05.2027 -
Toni Tamarit Alverca Actif 116 / 130 40% 4 10.05.2027 -
Leandro Martins Benfica Actif 94 / 106 40% 1 09.05.2027 -
João Simões Sporting CP Actif 132 / 129 40% 3 08.05.2027 -
Milad Jahanbakhsh Rah Ahan Actif 93 / 118 40% 1 08.05.2027 -
Ollie Scarles Chelsea Actif 132 / 129 40% 2 07.05.2027 -
Omar El Hilali Espanyol Actif 152 / 152 40% 8 06.05.2027 -
Diego López Valencia Actif 136 / 147 40% 2 06.05.2027 -
Warren Zaïre-Emery Paris Saint-Germain Actif 159 / 154 40% 3 03.05.2027 -
Jofre Torrents Ajax Actif 126 / 119 40% 3 30.04.2027 -
Oscar Schwartau Norwich City Actif 120 / 125 40% 1 30.04.2027 -
Jan Virgili Club Brugge Actif 128 / 131 40% 3 28.04.2027 -
Olívio Tomé Benfica Actif 113 / 111 40% 1 28.04.2027 -
Gonçalo Oliveira Benfica Actif 114 / 109 40% 1 27.04.2027 -
Raúl Moro Osasuna Actif 144 / 133 40% 1 27.04.2027 -
Sam Curtis Swindon Town Actif 99 / 105 40% 1 22.04.2027 -
Christos Mouzakitis Hull City Actif 129 / 136 40% 1 22.04.2027 -
Paulo Iago Sporting CP Actif 95 / 109 40% 1 21.04.2027 -
Jesús Rodríguez Napoli Actif 147 / 139 40% 1 21.04.2027 -
David Mella Deportivo La Coruña Actif 126 / 142 40% 1 21.04.2027 -
Chema Andrés Liverpool Actif 132 / 134 40% 3 19.04.2027 -
Pau Navarro Villarreal Actif 142 / 143 40% 4 17.04.2027 -
Alexis Vossah Angers SCO Actif 118 / 125 40% 2 14.04.2027 -
Yussif Saidu Zaragoza Actif 121 / 134 40% 1 14.04.2027 -
Ansu Fati Monaco Actif 145 / 133 40% 4 05.04.2027 -
Carlos Álvarez Club America Actif 140 / 143 40% 5 05.04.2027 -
Bryan González Guadalajara Actif 129 / 136 40% 2 02.04.2027 -
Matías Fernández-Pardo Newcastle United Actif 145 / 139 40% 1 02.04.2027 -
David Larrubia Málaga Actif 130 / 120 40% 3 01.04.2027 -
Brian Gutiérrez Guadalajara Actif 133 / 128 40% 3 01.04.2027 -
Caleb Yirenkyi Coventry City Actif 139 / 147 40% 3 29.03.2027 -
Bradley Barcola Liverpool Actif 161 / 170 40% 3 24.03.2027 -
Gonzalo Fulham Actif 147 / 141 40% 2 23.03.2027 -
Gladson Sulemana Liberty Professionals Actif 89 / 105 40% 1 18.03.2027 -
Florian Wirtz Liverpool Actif 177 / 176 40% 2 17.03.2027 -
Liam Delap Nottingham Forest Actif 142 / 138 40% 1 14.03.2027 -
Joaquin Seys Club Brugge Actif 128 / 136 40% 1 11.03.2027 -
Chemsdine Talbi Sunderland Actif 143 / 141 40% 1 10.03.2027 -
Jorrel Hato Chelsea Actif 146 / 155 40% 1 06.03.2027 -
José Pachuca Puebla Actif 111 / 122 40% 1 06.03.2027 -
Logan Costa Villarreal Actif 150 / 137 40% 8 02.03.2027 -
Ramón Terrats Getafe Actif 141 / 134 40% 4 02.03.2027 -
Arnau Martínez Valencia Actif 141 / 139 40% 1 02.03.2027 -
Pedro Porro Tottenham Actif 147 / 153 40% 8 28.02.2027 -
José Ángel Carmona Sevilla Actif 142 / 139 40% 2 28.02.2027 -
Nico González Newcastle United Actif 165 / 154 40% 7 26.02.2027 -
Fran García Betis Actif 146 / 141 40% 7 26.02.2027 -
Tino Livramento Newcastle United Actif 155 / 164 40% 1 26.02.2027 -
Nathan Collins Brentford Actif 148 / 144 40% 2 23.02.2027 -
Jan Paul van Hecke Tottenham Actif 153 / 164 40% 3 23.02.2027 -
William Saliba Arsenal Actif 173 / 172 40% 4 20.02.2027 -
Johnny Cardoso Atlético Madrid Actif 158 / 156 40% 8 20.02.2027 -
Lucien Agoumé Sevilla Actif 147 / 149 40% 5 20.02.2027 -
Tuerto Sevilla Actif 160 / 144 40% 6 18.02.2027 -
Carlos Romero Villarreal Actif 153 / 140 40% 3 18.02.2027 -
Gavi Barcelona Actif 154 / 167 40% 3 17.02.2027 -
Sven Botman Newcastle United Actif 157 / 154 40% 3 15.02.2027 -
Pedri Barcelona Actif 183 / 174 40% 7 13.02.2027 -
Igor Jesus Nottingham Forest Actif 148 / 145 40% 3 01.01.2027 -
Rayan Cherki Manchester City Actif 167 / 165 40% 5 01.01.2027 -
Pau Víctor Estrela da Amadora Actif 139 / 143 40% 3 01.01.2027 -
Ez Abde Betis Actif 157 / 148 40% 1 30.12.2026 Plus d'infos
Vitinha Paris Saint-Germain Actif 176 / 172 40% 2 28.12.2026 -
Martín Zubimendi Arsenal Actif 167 / 157 40% 2 28.12.2026 -
Andrés Martín Racing Santander Actif 140 / 134 40% 1 26.12.2026 -
Javi Guerra Valencia Actif 144 / 148 40% 2 24.12.2026 -
Óscar Mingueza Crystal Palace Actif 154 / 153 40% 1 24.12.2026 -
Jorge Pascual Granada Actif 129 / 145 40% 1 23.12.2026 -
Iliman N'Diaye Everton Actif 160 / 147 40% 1 23.12.2026 -
Pape Guèye Villarreal Actif 155 / 140 40% 4 20.12.2026 -
Florián Monzón Atlas Actif 126 / 124 40% 1 20.12.2026 -
Nicolás Cordero Aldosivi Actif 118 / 116 40% 2 13.12.2026 -
Antoine Semenyo Manchester City Actif 165 / 152 40% 1 13.12.2026 -
Rodrigo Muniz Fulham Actif 134 / 131 40% 1 13.12.2026 -
Mauro Valiente Chiapas Actif 115 / 117 40% 2 12.12.2026 -
Alan Velasco Boca Juniors Actif 132 / 124 40% 1 12.12.2026 -
Dušan Vlahović Betis Actif 155 / 162 40% 1 11.12.2026 -
Tani Oluwaseyi Villarreal Actif 140 / 154 40% 1 10.12.2026 -
Pablo Rodríguez Lech Actif 125 / 125 40% 1 10.12.2026 -
Alexis Mac Allister Liverpool Actif 160 / 159 40% 5 08.12.2026 -
Declan Rice Arsenal Actif 181 / 181 40% 3 07.12.2026 -
Jorge Cuenca Fulham Actif 140 / 141 40% 1 07.12.2026 -
Florentino Luís Ipswich Town Actif 140 / 129 40% 1 05.12.2026 -
Rodrygo Real Madrid Actif 161 / 174 40% 3 29.11.2026 -
Gabriel Martinelli Arsenal Actif 160 / 156 40% 1 29.11.2026 -
Karim Adeyemi Barcelona Actif 148 / 158 40% 1 29.11.2026 -
Cristhian Mosquera Arsenal Actif 150 / 146 40% 2 28.11.2026 -
Levi Colwill Chelsea Actif 154 / 150 40% 1 28.11.2026 -
Eric García Barcelona Actif 161 / 157 40% 3 26.11.2026 -
Kike Salas Sevilla Actif 140 / 145 40% 2 24.11.2026 -
Matías Contrera Northampton Town Actif 94 / 93 40% 1 24.11.2026 -
Julian Palacios Feyenoord Actif 147 / 147 40% 3 20.11.2026 -
Mika Mármol Feyenoord Actif 143 / 140 40% 1 20.11.2026 -
Adrien Truffert Bournemouth Actif 145 / 149 40% 1 20.11.2026 -
Mateo Mendoza Godoy Cruz Actif 126 / 136 40% 1 13.11.2026 -
Fran Beltrán Girona Actif 141 / 133 40% 2 12.11.2026 -
Alberto Soro Dinamo Bucharest Actif 111 / 124 40% 1 09.11.2026 -
Diego García Malmo FF Actif 128 / 109 40% 1 09.11.2026 -
André Almeida Valencia Actif 142 / 142 30% 1 / 1m 04.11.2026 -
Enzo Avaro Mitre Actif 111 / 103 40% 1 04.11.2026 -
Alexis Cuello San Lorenzo Actif 121 / 134 40% 1 04.11.2026 -
Ryan Gravenberch Liverpool Actif 157 / 166 40% 1 28.10.2026 -
Achraf Hakimi Paris Saint-Germain Actif 178 / 179 40% 3 24.10.2026 -
Antonio Blanco Alavés Actif 139 / 135 40% 1 24.10.2026 -
Wesley Fofana Chelsea Actif 163 / 153 40% 1 10.10.2026 -
Tomás Aranda Boca Juniors Actif 110 / 117 40% 1 31.08.2026 -
Nazareno Kihm Ferro Carril Oeste Actif 104 / 106 40% 1 17.08.2026 -
Joel Godoy Sarmiento Actif 114 / 124 40% 1 01.08.2026 -